createdAt,value
2022-12-25T00:01:19.045Z,48.37
2022-12-25T00:04:05.710Z,66.77
2022-12-25T00:06:52.275Z,48.00
2022-12-25T00:09:38.831Z,108.17
2022-12-25T00:12:25.354Z,27.03
2022-12-25T00:15:11.835Z,16.67
2022-12-25T00:17:58.356Z,33.37
2022-12-25T00:20:44.891Z,43.90
2022-12-25T00:23:31.457Z,58.50
2022-12-25T00:26:17.991Z,53.83
2022-12-25T00:29:04.541Z,14.10
2022-12-25T00:31:51.121Z,134.33
2022-12-25T00:34:37.689Z,61.63
2022-12-25T00:37:24.206Z,70.80
2022-12-25T00:40:10.765Z,64.17
2022-12-25T00:42:57.291Z,39.50
2022-12-25T00:45:43.863Z,28.17
2022-12-25T00:48:30.515Z,15.33
2022-12-25T00:51:17.057Z,13.33
2022-12-25T00:54:03.611Z,16.73
2022-12-25T00:56:50.135Z,11.10
2022-12-25T00:59:36.723Z,16.50
2022-12-25T01:02:23.293Z,13.13
2022-12-25T01:05:09.961Z,12.33
2022-12-25T01:07:56.478Z,11.33
2022-12-25T01:10:43.018Z,22.30
2022-12-25T01:13:29.526Z,21.90
2022-12-25T01:16:16.122Z,19.47
2022-12-25T01:19:02.689Z,29.50
2022-12-25T01:21:49.247Z,19.77
2022-12-25T01:24:35.775Z,27.33
2022-12-25T01:27:22.324Z,185.40
2022-12-25T01:30:08.872Z,90.60
2022-12-25T01:32:55.677Z,68.07
2022-12-25T01:35:42.197Z,22.77
2022-12-25T01:38:28.867Z,24.13
2022-12-25T01:41:15.396Z,13.17
2022-12-25T01:44:01.986Z,14.57
2022-12-25T01:46:48.507Z,24.00
2022-12-25T01:49:35.056Z,79.67
2022-12-25T01:52:24.107Z,83.67
2022-12-25T01:55:11.111Z,89.67
2022-12-25T01:57:57.629Z,69.70
2022-12-25T02:00:44.229Z,58.03
2022-12-25T02:03:30.809Z,128.73
2022-12-25T02:06:17.352Z,28.07
2022-12-25T02:09:03.894Z,93.03
2022-12-25T02:11:50.425Z,78.37
2022-12-25T02:14:37.017Z,89.00
2022-12-25T02:17:23.617Z,105.87
2022-12-25T02:20:10.233Z,101.17
2022-12-25T02:22:56.723Z,81.60
2022-12-25T02:25:44.235Z,90.77
2022-12-25T02:28:30.765Z,54.40
2022-12-25T02:31:17.415Z,82.97
2022-12-25T02:34:03.956Z,41.13
2022-12-25T02:36:50.505Z,23.67
2022-12-25T02:39:37.019Z,33.40
2022-12-25T02:42:23.586Z,54.73
2022-12-25T02:45:10.126Z,39.53
2022-12-25T02:47:56.680Z,18.93
2022-12-25T02:50:43.214Z,17.20
2022-12-25T02:53:29.743Z,18.73
2022-12-25T02:56:16.264Z,14.57
2022-12-25T02:59:02.800Z,12.73
2022-12-25T03:01:49.405Z,14.00
2022-12-25T03:04:36.002Z,12.67
2022-12-25T03:07:22.527Z,21.63
2022-12-25T03:10:09.167Z,33.53
2022-12-25T03:12:55.733Z,15.10
2022-12-25T03:15:42.290Z,14.50
2022-12-25T03:18:28.820Z,15.17
2022-12-25T03:21:15.376Z,17.83
2022-12-25T03:24:01.909Z,28.07
2022-12-25T03:26:48.482Z,26.63
2022-12-25T03:29:36.047Z,28.13
2022-12-25T03:32:22.584Z,24.37
2022-12-25T03:35:09.142Z,48.00
2022-12-25T03:37:55.682Z,39.07
2022-12-25T03:40:42.195Z,26.07
2022-12-25T03:43:28.737Z,50.03
2022-12-25T03:46:15.301Z,43.23
2022-12-25T03:49:01.865Z,13.07
2022-12-25T03:51:48.414Z,15.33
2022-12-25T03:54:34.961Z,10.90
2022-12-25T03:57:21.480Z,11.40
2022-12-25T04:00:08.166Z,10.23
2022-12-25T04:02:54.838Z,11.50
2022-12-25T04:05:41.421Z,11.13
2022-12-25T04:08:27.943Z,10.60
2022-12-25T04:11:14.458Z,8.90
2022-12-25T04:14:00.990Z,9.13
2022-12-25T04:16:47.535Z,10.07
2022-12-25T04:19:34.076Z,14.73
2022-12-25T04:22:20.606Z,13.23
2022-12-25T04:25:07.187Z,12.60
2022-12-25T04:27:53.717Z,16.50
2022-12-25T04:30:40.266Z,55.87
2022-12-25T04:33:26.760Z,14.07
2022-12-25T04:36:13.327Z,29.27
2022-12-25T04:38:59.862Z,15.10
2022-12-25T04:41:47.382Z,10.70
2022-12-25T04:44:33.906Z,12.57
2022-12-25T04:47:20.537Z,10.23
2022-12-25T04:50:07.084Z,19.47
2022-12-25T04:52:53.634Z,12.40
2022-12-25T04:55:40.160Z,8.13
2022-12-25T04:58:26.715Z,14.10
2022-12-25T05:01:13.315Z,8.50
2022-12-25T05:04:00.034Z,11.50
2022-12-25T05:06:46.633Z,16.00
2022-12-25T05:09:33.157Z,18.80
2022-12-25T05:12:19.695Z,10.70
2022-12-25T05:15:06.208Z,14.20
2022-12-25T05:17:52.787Z,14.80
2022-12-25T05:20:40.409Z,19.00
2022-12-25T05:23:27.123Z,17.93
2022-12-25T05:26:13.651Z,13.47
2022-12-25T05:29:00.189Z,15.47
2022-12-25T05:31:46.745Z,11.70
2022-12-25T05:34:33.382Z,13.33
2022-12-25T05:37:19.949Z,14.03
2022-12-25T05:40:06.488Z,16.17
2022-12-25T05:42:53.056Z,12.20
2022-12-25T05:45:39.583Z,20.27
2022-12-25T05:48:26.154Z,14.20
2022-12-25T05:51:12.700Z,13.70
2022-12-25T05:53:59.243Z,13.63
2022-12-25T05:56:45.766Z,14.47
2022-12-25T05:59:32.329Z,13.37
2022-12-25T06:02:18.881Z,13.77
2022-12-25T06:05:05.440Z,13.93
2022-12-25T06:07:51.971Z,15.67
2022-12-25T06:10:38.507Z,8.53
2022-12-25T06:13:25.145Z,11.60
2022-12-25T06:16:11.763Z,10.40
2022-12-25T06:18:58.336Z,14.40
2022-12-25T06:21:44.860Z,11.43
2022-12-25T06:24:31.418Z,11.77
2022-12-25T06:27:17.945Z,10.73
2022-12-25T06:30:04.511Z,10.83
2022-12-25T06:32:51.041Z,9.37
2022-12-25T06:35:37.604Z,27.20
2022-12-25T06:38:24.123Z,9.07
2022-12-25T06:41:10.718Z,8.77
2022-12-25T06:43:57.240Z,10.23
2022-12-25T06:46:43.772Z,8.43
2022-12-25T06:49:30.318Z,11.63
2022-12-25T06:52:16.882Z,16.67
2022-12-25T06:55:03.412Z,17.87
2022-12-25T06:57:49.997Z,16.83
2022-12-25T07:00:36.611Z,12.63
2022-12-25T07:03:23.287Z,12.97
2022-12-25T07:06:09.889Z,12.30
2022-12-25T07:08:56.700Z,16.40
2022-12-25T07:11:43.245Z,17.87
2022-12-25T07:14:29.817Z,14.90
2022-12-25T07:17:16.355Z,19.67
2022-12-25T07:20:03.547Z,13.57
2022-12-25T07:22:50.108Z,13.83
2022-12-25T07:25:37.582Z,14.67
2022-12-25T07:28:24.229Z,13.80
2022-12-25T07:31:10.786Z,14.20
2022-12-25T07:33:57.294Z,13.83
2022-12-25T07:36:43.887Z,15.87
2022-12-25T07:39:30.441Z,27.37
2022-12-25T07:42:21.836Z,18.17
2022-12-25T07:45:11.612Z,18.13
2022-12-25T07:48:04.498Z,43.73
2022-12-25T07:50:52.935Z,10.07
2022-12-25T07:53:39.657Z,9.67
2022-12-25T07:56:26.208Z,10.83
2022-12-25T07:59:13.766Z,15.03
2022-12-25T08:02:00.838Z,14.07
2022-12-25T08:04:47.565Z,18.77
2022-12-25T08:07:34.041Z,17.83
2022-12-25T08:10:20.599Z,21.57
2022-12-25T08:13:13.969Z,50.03
2022-12-25T08:16:01.058Z,27.23
2022-12-25T08:18:47.528Z,25.23
2022-12-25T08:21:34.067Z,24.37
2022-12-25T08:24:20.595Z,22.43
2022-12-25T08:27:07.139Z,20.77
2022-12-25T08:29:53.662Z,23.73
2022-12-25T08:32:41.317Z,19.10
2022-12-25T08:35:27.830Z,17.57
2022-12-25T08:38:14.389Z,13.40
2022-12-25T08:41:00.925Z,27.57
2022-12-25T08:43:47.497Z,15.77
2022-12-25T08:46:34.076Z,12.90
2022-12-25T08:49:20.637Z,13.60
2022-12-25T08:52:07.318Z,19.77
2022-12-25T08:54:53.990Z,14.17
2022-12-25T08:57:40.767Z,17.20
2022-12-25T09:00:27.266Z,18.30
2022-12-25T09:03:13.871Z,19.67
2022-12-25T09:06:00.427Z,18.50
2022-12-25T09:08:49.661Z,20.40
2022-12-25T09:11:36.452Z,20.57
2022-12-25T09:14:22.958Z,20.00
2022-12-25T09:17:09.618Z,18.93
2022-12-25T09:19:56.146Z,21.67
2022-12-25T09:22:42.726Z,26.30
2022-12-25T09:25:29.240Z,29.73
2022-12-25T09:28:15.803Z,25.80
2022-12-25T09:31:02.387Z,31.50
2022-12-25T09:33:49.068Z,30.43
2022-12-25T09:36:38.199Z,27.50
2022-12-25T09:39:24.776Z,38.93
2022-12-25T09:42:11.309Z,20.57
2022-12-25T09:44:57.885Z,21.37
2022-12-25T09:47:44.418Z,19.17
2022-12-25T09:50:30.978Z,18.97
2022-12-25T09:53:17.580Z,29.80
2022-12-25T09:56:04.193Z,27.73
2022-12-25T09:58:50.717Z,35.03
2022-12-25T10:01:37.355Z,29.40
2022-12-25T10:04:23.950Z,31.40
2022-12-25T10:07:10.474Z,30.73
2022-12-25T10:09:57.019Z,36.20
2022-12-25T10:12:43.561Z,35.40
2022-12-25T10:15:30.238Z,43.37
2022-12-25T10:18:16.809Z,32.37
2022-12-25T10:21:05.677Z,26.33
2022-12-25T10:23:56.023Z,23.27
2022-12-25T10:26:42.552Z,26.60
2022-12-25T10:29:29.108Z,27.03
2022-12-25T10:32:15.643Z,27.07
2022-12-25T10:35:02.195Z,24.60
2022-12-25T10:37:48.731Z,33.40
2022-12-25T10:40:35.303Z,31.13
2022-12-25T10:43:21.801Z,31.83
2022-12-25T10:46:09.357Z,27.50
2022-12-25T10:48:55.866Z,27.13
2022-12-25T10:51:42.427Z,23.90
2022-12-25T10:54:28.981Z,23.40
2022-12-25T10:57:15.534Z,15.20
2022-12-25T11:00:02.087Z,11.40
2022-12-25T11:02:48.766Z,10.40
2022-12-25T11:05:35.499Z,8.07
2022-12-25T11:08:23.035Z,5.47
2022-12-25T11:11:09.609Z,9.10
2022-12-25T11:13:56.094Z,5.13
2022-12-25T11:16:42.685Z,5.57
2022-12-25T11:19:29.273Z,6.60
2022-12-25T11:22:15.850Z,7.03
2022-12-25T11:25:02.395Z,6.80
2022-12-25T11:27:51.930Z,8.70
2022-12-25T11:30:40.129Z,4.40
2022-12-25T11:33:26.676Z,2.63
2022-12-25T11:36:13.170Z,5.53
2022-12-25T11:38:59.744Z,4.90
2022-12-25T11:41:46.284Z,3.60
2022-12-25T11:44:32.851Z,5.23
2022-12-25T11:47:19.711Z,3.53
2022-12-25T11:50:06.276Z,2.47
2022-12-25T11:52:52.887Z,4.07
2022-12-25T11:55:39.499Z,3.70
2022-12-25T11:58:26.035Z,2.93
2022-12-25T12:01:12.604Z,3.77
2022-12-25T12:03:59.177Z,4.60
2022-12-25T12:06:45.786Z,4.13
2022-12-25T12:09:32.351Z,4.27
2022-12-25T12:12:18.872Z,2.83
2022-12-25T12:15:05.461Z,5.00
2022-12-25T12:17:51.990Z,4.83
2022-12-25T12:20:38.539Z,3.00
2022-12-25T12:23:25.089Z,3.87
2022-12-25T12:26:11.673Z,3.37
2022-12-25T12:28:58.200Z,4.20
2022-12-25T12:31:44.864Z,2.17
2022-12-25T12:34:31.441Z,3.23
2022-12-25T12:37:24.502Z,3.53
2022-12-25T12:40:11.453Z,6.43
2022-12-25T12:42:57.968Z,4.43
2022-12-25T12:45:44.514Z,18.00
2022-12-25T12:48:31.087Z,3.10
2022-12-25T12:51:17.651Z,2.97
2022-12-25T12:54:04.203Z,3.13
2022-12-25T12:56:50.750Z,2.40
2022-12-25T12:59:37.280Z,2.87
2022-12-25T13:02:23.886Z,5.07
2022-12-25T13:05:10.457Z,3.23
2022-12-25T13:07:57.093Z,2.67
2022-12-25T13:10:43.743Z,3.93
2022-12-25T13:13:30.314Z,5.47
2022-12-25T13:16:16.905Z,3.33
2022-12-25T13:19:03.639Z,2.93
2022-12-25T13:21:50.162Z,1.47
2022-12-25T13:24:36.763Z,3.40
2022-12-25T13:27:23.359Z,2.47
2022-12-25T13:30:10.059Z,4.40
2022-12-25T13:32:56.659Z,0.80
2022-12-25T13:35:43.232Z,3.20
2022-12-25T13:38:29.713Z,3.43
2022-12-25T13:41:16.281Z,2.73
2022-12-25T13:44:02.903Z,3.77
2022-12-25T13:46:49.459Z,3.93
2022-12-25T13:49:36.014Z,3.27
2022-12-25T13:52:22.545Z,4.50
2022-12-25T13:55:09.208Z,3.13
2022-12-25T13:57:55.782Z,2.13
2022-12-25T14:00:42.307Z,4.33
2022-12-25T14:03:29.074Z,3.60
2022-12-25T14:06:15.720Z,2.77
2022-12-25T14:09:02.312Z,4.90
2022-12-25T14:11:48.865Z,3.53
2022-12-25T14:14:35.391Z,2.80
2022-12-25T14:17:21.933Z,2.10
2022-12-25T14:20:09.012Z,5.43
2022-12-25T14:22:55.579Z,4.50
2022-12-25T14:25:42.173Z,3.10
2022-12-25T14:28:28.922Z,4.57
2022-12-25T14:31:15.606Z,2.80
2022-12-25T14:34:02.155Z,2.80
2022-12-25T14:36:48.849Z,3.27
2022-12-25T14:39:35.415Z,2.53
2022-12-25T14:42:21.993Z,2.57
2022-12-25T14:45:08.544Z,2.20
2022-12-25T14:47:55.176Z,3.93
2022-12-25T14:50:41.707Z,1.77
2022-12-25T14:53:28.273Z,2.70
2022-12-25T14:56:14.838Z,2.97
2022-12-25T14:59:01.353Z,2.73
2022-12-25T15:01:48.027Z,3.90
2022-12-25T15:04:34.679Z,4.27
2022-12-25T15:07:21.275Z,2.57
2022-12-25T15:13:14.349Z,3.73
2022-12-25T15:16:00.941Z,4.00
2022-12-25T15:18:47.540Z,5.43
2022-12-25T15:21:34.220Z,5.63
2022-12-25T15:24:20.772Z,4.73
2022-12-25T15:27:07.341Z,4.67
2022-12-25T15:30:10.653Z,3.53
2022-12-25T15:32:57.731Z,6.47
2022-12-25T15:35:44.413Z,4.77
2022-12-25T15:38:31.083Z,7.07
2022-12-25T15:41:17.615Z,7.33
2022-12-25T15:44:04.184Z,9.07
2022-12-25T15:46:50.773Z,4.43
2022-12-25T15:49:42.445Z,6.23
2022-12-25T15:52:28.981Z,7.90
2022-12-25T15:55:15.512Z,9.33
2022-12-25T15:58:02.234Z,5.17
2022-12-25T16:00:48.775Z,8.97
2022-12-25T16:03:35.402Z,5.50
2022-12-25T16:06:21.947Z,6.27
2022-12-25T16:09:08.524Z,7.57
2022-12-25T16:11:55.080Z,6.20
2022-12-25T16:14:41.630Z,8.53
2022-12-25T16:17:28.171Z,6.00
2022-12-25T16:20:14.709Z,6.03
2022-12-25T16:23:01.261Z,7.93
2022-12-25T16:25:47.751Z,8.07
2022-12-25T16:28:34.327Z,4.40
2022-12-25T16:31:20.915Z,8.23
2022-12-25T16:34:07.517Z,14.37
2022-12-25T16:36:54.049Z,19.63
2022-12-25T16:39:41.645Z,21.13
2022-12-25T16:42:28.223Z,21.67
2022-12-25T16:45:14.753Z,15.00
2022-12-25T16:48:01.295Z,16.03
2022-12-25T16:50:47.781Z,9.37
2022-12-25T16:53:34.363Z,7.90
2022-12-25T16:56:20.888Z,6.47
2022-12-25T16:59:07.434Z,4.93
2022-12-25T17:01:54.058Z,4.20
2022-12-25T17:04:42.248Z,5.23
2022-12-25T17:07:28.806Z,4.80
2022-12-25T17:10:15.370Z,6.57
2022-12-25T17:13:01.935Z,5.87
2022-12-25T17:15:50.572Z,5.33
2022-12-25T17:18:37.527Z,6.53
2022-12-25T17:21:24.086Z,8.50
2022-12-25T17:24:10.670Z,5.87
2022-12-25T17:26:57.232Z,7.50
2022-12-25T17:29:43.794Z,4.20
2022-12-25T17:32:30.322Z,5.60
2022-12-25T17:35:16.890Z,23.80
2022-12-25T17:38:03.564Z,27.90
2022-12-25T17:40:50.107Z,36.83
2022-12-25T17:43:36.809Z,46.43
2022-12-25T17:46:23.339Z,128.53
2022-12-25T17:49:09.984Z,129.93
2022-12-25T17:51:56.546Z,135.27
2022-12-25T17:54:43.085Z,138.93
2022-12-25T17:57:37.152Z,62.27
2022-12-25T18:00:23.682Z,34.77
2022-12-25T18:03:11.934Z,19.27
2022-12-25T18:05:58.777Z,21.97
2022-12-25T18:08:45.330Z,15.47
2022-12-25T18:11:31.863Z,10.87
2022-12-25T18:14:18.423Z,8.70
2022-12-25T18:17:04.901Z,9.57
2022-12-25T18:19:51.584Z,9.13
2022-12-25T18:22:38.112Z,8.23
2022-12-25T18:25:24.731Z,9.20
2022-12-25T18:28:11.265Z,16.00
2022-12-25T18:30:57.806Z,9.73
2022-12-25T18:33:44.301Z,6.93
2022-12-25T18:36:30.859Z,6.63
2022-12-25T18:39:17.359Z,7.13
2022-12-25T18:42:04.021Z,7.97
2022-12-25T18:44:50.546Z,8.63
2022-12-25T18:47:37.099Z,8.63
2022-12-25T18:50:23.624Z,7.93
2022-12-25T18:53:10.170Z,9.20
2022-12-25T18:55:56.666Z,19.67
2022-12-25T18:58:43.210Z,18.30
2022-12-25T19:01:29.816Z,33.17
2022-12-25T19:04:16.468Z,69.13
2022-12-25T19:07:02.986Z,74.97
2022-12-25T19:09:49.580Z,65.57
2022-12-25T19:12:36.110Z,52.13
2022-12-25T19:15:22.681Z,38.20
2022-12-25T19:18:09.252Z,39.40
2022-12-25T19:20:55.910Z,38.67
2022-12-25T19:23:42.436Z,36.60
2022-12-25T19:26:28.981Z,42.43
2022-12-25T19:29:15.519Z,27.83
2022-12-25T19:32:02.180Z,29.03
2022-12-25T19:34:48.830Z,18.60
2022-12-25T19:37:35.537Z,15.77
2022-12-25T19:40:22.061Z,11.47
2022-12-25T19:43:08.645Z,12.87
2022-12-25T19:45:55.263Z,22.50
2022-12-25T19:48:41.921Z,11.63
2022-12-25T19:51:28.611Z,12.93
2022-12-25T19:54:15.175Z,10.60
2022-12-25T19:57:01.786Z,13.37
2022-12-25T19:59:48.601Z,11.90
2022-12-25T20:02:35.714Z,8.90
2022-12-25T20:05:22.348Z,9.33
2022-12-25T20:08:08.930Z,8.27
2022-12-25T20:10:55.591Z,9.93
2022-12-25T20:13:42.203Z,8.73
2022-12-25T20:16:28.945Z,8.40
2022-12-25T20:19:15.536Z,11.37
2022-12-25T20:22:02.104Z,7.73
2022-12-25T20:24:48.627Z,8.47
2022-12-25T20:27:35.172Z,9.20
2022-12-25T20:30:21.688Z,12.10
2022-12-25T20:33:08.197Z,55.93
2022-12-25T20:35:54.722Z,17.40
2022-12-25T20:38:41.418Z,15.07
2022-12-25T20:41:29.551Z,10.70
2022-12-25T20:44:16.564Z,8.23
2022-12-25T20:47:03.167Z,11.33
2022-12-25T20:49:49.728Z,9.13
2022-12-25T20:52:36.366Z,28.90
2022-12-25T20:55:25.214Z,9.27
2022-12-25T20:58:11.715Z,27.93
2022-12-25T21:00:59.344Z,11.80
2022-12-25T21:03:46.781Z,10.67
2022-12-25T21:06:33.675Z,11.47
2022-12-25T21:09:20.306Z,7.50
2022-12-25T21:12:07.053Z,7.30
2022-12-25T21:14:53.757Z,16.63
2022-12-25T21:17:40.331Z,10.60
2022-12-25T21:20:26.871Z,9.00
2022-12-25T21:23:13.467Z,10.87
2022-12-25T21:25:59.994Z,7.47
2022-12-25T21:28:46.558Z,3.57
2022-12-25T21:31:33.242Z,4.77
2022-12-25T21:34:19.778Z,8.17
2022-12-25T21:37:06.308Z,8.57
2022-12-25T21:39:52.987Z,6.83
2022-12-25T21:42:39.516Z,7.47
2022-12-25T21:45:26.176Z,17.80
2022-12-25T21:48:12.717Z,11.77
2022-12-25T21:50:59.300Z,12.93
2022-12-25T21:53:45.831Z,10.57
2022-12-25T21:56:32.452Z,12.00
2022-12-25T21:59:18.982Z,9.40
2022-12-25T22:02:05.723Z,10.63
2022-12-25T22:04:52.336Z,9.93
2022-12-25T22:07:38.877Z,10.03
2022-12-25T22:10:25.427Z,9.87
2022-12-25T22:13:11.945Z,10.13
2022-12-25T22:15:58.481Z,9.80
2022-12-25T22:18:45.041Z,9.90
2022-12-25T22:21:31.570Z,7.07
2022-12-25T22:24:18.126Z,4.77
2022-12-25T22:27:04.644Z,3.60
2022-12-25T22:29:51.182Z,4.83
2022-12-25T22:32:37.708Z,3.50
2022-12-25T22:35:24.252Z,4.30
2022-12-25T22:38:10.917Z,5.00
2022-12-25T22:40:57.486Z,4.80
2022-12-25T22:44:15.892Z,4.73
2022-12-25T22:46:50.541Z,7.70
2022-12-25T22:49:37.065Z,6.40
2022-12-25T22:52:23.715Z,5.33
2022-12-25T22:55:10.259Z,6.80
2022-12-25T22:57:56.825Z,6.67
2022-12-25T23:00:46.488Z,5.43
2022-12-25T23:03:33.383Z,5.80
2022-12-25T23:06:19.974Z,6.37
2022-12-25T23:09:06.526Z,6.80
2022-12-25T23:11:54.077Z,6.70
2022-12-25T23:14:40.649Z,6.90
2022-12-25T23:17:27.174Z,6.13
2022-12-25T23:20:13.727Z,5.33
2022-12-25T23:23:01.285Z,8.63
2022-12-25T23:25:47.834Z,5.67
2022-12-25T23:28:34.363Z,5.80
2022-12-25T23:31:20.978Z,6.70
2022-12-25T23:34:07.591Z,5.40
2022-12-25T23:36:54.198Z,4.20
2022-12-25T23:39:40.734Z,4.57
2022-12-25T23:42:27.271Z,3.67
2022-12-25T23:45:13.823Z,4.00
2022-12-25T23:48:00.387Z,8.73
2022-12-25T23:50:46.891Z,9.80
2022-12-25T23:53:33.463Z,6.50
2022-12-25T23:56:19.981Z,6.83
2022-12-25T23:59:06.528Z,8.77
